Eldorado, OK (73537)

5:43 AM CST on February 11, 2016 (GMT -0600)
Quanah | | Change Station
CLOSE
Current Station
Personal Weather Station
Location: Quanah, TX
Elevation: 1588 ft
Nearby Weather Stations

Elev 1588 ft 34.29 °N, 99.75 °W | Updated 3 seconds ago

Clear
Clear
43.2 °F
Feels Like 43 °F
N
0.0
Wind Variable Wind from North
Gusts 0.0 mph

Today
High -- | Low -- °F
--% Chance of Precip.
Yesterday
High -- | Low -- °F
Precip. -- in
Pressure 30.10 in
Visibility 10.0 miles
Clouds Clear
Windchill 43 °F
Dew Point 4 °F
Humidity 19%
Rainfall 0.00 in
Snow Depth Not available.
7:28 AM 6:17 PM
Waxing Crescent, 11% visible
METAR KAXS 111135Z AUTO 01003KT 10SM CLR 05/M02 A3010 RMK AO2 T00491016
Pressure 30.10 in
Visibility 10.0 miles
Clouds Clear
Windchill 43 °F
Dew Point 4 °F
Humidity 19%
Rainfall 0.00 in
Snow Depth Not available.
7:28 AM 6:17 PM
Waxing Crescent, 11% visible
METAR KAXS 111135Z AUTO 01003KT 10SM CLR 05/M02 A3010 RMK AO2 T00491016

10-Day Weather Forecast

Almanac

Astronomy

Feb. 11, 2016 Rise Set
Actual Time
Civil Twilight
Nautical Twilight
Astronomical Twilight
Moon
Length of Visible Light
Length of Day
Tomorrow will be .
, % of the Moon is Illuminated

Today's Extremes

State Highs State Lows

Community

WunderPhotos

Upload Photos

1,892,030 photos uploaded!

WunderBlog® & News

Nearby

Air Quality

  Air Quality AQ Index Pollutant
Not available.

Snow Depth

Station Depth Elevation

Earthquake Activity

City Distance Mag. Time & Date
Minimum magnitude displayed is 2.5.

Coastal Water Temperatures

Place Temperature

Stations

Nearby Weather Stations

Station Location Temp. Windchill Dew Point Humidity Wind Precip. Elev Updated Type
                   

Watches & Warnings

There are currently no watches in effect.